Main page
METAR-TAF:

METAR-TAF

Airports :

Cazaux Air Base

Cazaux, France

latitude: 44-32N, longitude: 001-08W, elevation: 25 m

Current weather observation

The report was made 29 minutes ago, at 12:30 UTC
Wind 7 kt from the West/Northwest, varying between West and North
Temperature 26°C
Humidity 48%
Pressure 1022 hPa
Visibility 10 km or more
no clouds below 1500 m and no cumulonimbus

METAR: LFBC 201230Z AUTO 30007KT 260V360 CAVOK 26/14 Q1022 NOSIG

Time: 14:59 (12:59 UTC)

Forecast

The report was made 4 hours and 59 minutes ago, at 08:00 UTC
Forecast valid from 20 at 09 UTC to 21 at 09 UTC
Wind 2 kt from variable directions
Visibility 10 km or more
no clouds below 1500 m and no cumulonimbus
Becoming
from 20 at 11 UTC to 20 at 13 UTC
Wind 12 kt from the West/Northwest
Becoming
from 21 at 00 UTC to 21 at 02 UTC
Wind 2 kt from variable directions

TAF: LFBC 200800Z 2009/2109 VRB02KT CAVOK BECMG 2011/2013 30012KT BECMG 2100/2102 VRB02KT

Weather observations and forecasts of more than 4000 airports (METAR and TAF reports).

The available stations are represented by yellow and red dots on the map.

Hover mouse over dot to see the name of the station.

Then click to see weather observations and forecasts.

To change the map : click on the green buttons with a black cross to zoom in, on the green button with a dash to zoom out, or on the green arrows for adjacent maps.


METAR-TAF: